Time;durP1;ratioP1;P1;durP2;ratioP2;P2;SDS_P1;SDS_P2;PMS_P1;PMS_P2;Temp;Humidity;BMP_temperature;BMP_pressure;BME280_temperature;BME280_humidity;BME280_pressure;Samples;Min_cycle;Max_cycle;Signal;HPM_P1;HPM_P2
2020/12/09 00:01:33;;;;;;;22.90;15.27;;;;;;;4.26;90.42;97916.06;4974738;28;20085;-63
2020/12/09 00:04:33;;;;;;;20.87;15.03;;;;;;;4.33;90.13;97921.97;4972636;28;20391;-63
2020/12/09 00:06:58;;;;;;;21.80;15.83;;;;;;;4.31;90.27;97910.97;4965541;28;20111;-64
2020/12/09 00:09:24;;;;;;;21.47;14.83;;;;;;;4.31;90.11;97914.38;4971090;28;20101;-64
2020/12/09 00:11:53;;;;;;;19.27;13.77;;;;;;;4.36;90.23;97907.56;4972954;28;20019;-64
2020/12/09 00:14:19;;;;;;;22.80;15.47;;;;;;;4.33;89.75;97902.50;4974525;28;20018;-64
2020/12/09 00:16:45;;;;;;;20.80;14.37;;;;;;;4.29;90.29;97902.53;4973477;28;20027;-64
2020/12/09 00:19:10;;;;;;;20.63;14.50;;;;;;;4.27;90.46;97909.31;4975118;28;20049;-64
2020/12/09 00:21:36;;;;;;;20.47;15.20;;;;;;;4.30;90.34;97915.22;4973751;28;20027;-64
2020/12/09 00:24:02;;;;;;;21.33;14.90;;;;;;;4.29;90.40;97905.06;4975000;28;20352;-64
2020/12/09 00:26:28;;;;;;;21.87;15.77;;;;;;;4.29;90.67;97910.13;4956157;28;20046;-64
2020/12/09 00:28:55;;;;;;;23.77;14.67;;;;;;;4.33;90.44;97904.22;4975552;28;20027;-65
2020/12/09 00:31:25;;;;;;;21.80;15.80;;;;;;;4.33;90.32;97912.63;4972031;28;20034;-64
2020/12/09 00:33:51;;;;;;;18.90;14.27;;;;;;;4.32;90.51;97918.59;4982774;28;20088;-66
2020/12/09 00:36:18;;;;;;;20.47;14.57;;;;;;;4.34;90.06;97916.88;4980923;28;20027;-64
2020/12/09 00:38:44;;;;;;;19.90;14.03;;;;;;;4.35;90.50;97922.78;4991268;28;20027;-65
2020/12/09 00:41:17;;;;;;;19.27;14.50;;;;;;;4.36;90.40;97925.34;4990231;28;20031;-65
2020/12/09 00:43:43;;;;;;;22.27;15.00;;;;;;;4.30;90.74;97927.03;4952203;28;20033;-66
2020/12/09 00:46:17;;;;;;;21.27;15.03;;;;;;;4.33;90.45;97929.59;4981795;28;20085;-66
2020/12/09 00:48:43;;;;;;;19.60;14.43;;;;;;;4.26;90.47;97923.69;4970281;28;20054;-65
2020/12/09 00:51:20;;;;;;;21.37;14.33;;;;;;;4.33;90.85;97932.94;4967847;28;20130;-65
2020/12/09 00:53:47;;;;;;;18.57;14.80;;;;;;;4.38;90.57;97926.16;4984756;28;20023;-64
2020/12/09 00:56:12;;;;;;;21.90;14.90;;;;;;;4.28;90.45;97919.47;4990959;28;20041;-65
2020/12/09 00:58:38;;;;;;;19.13;14.90;;;;;;;4.36;89.76;97922.78;4990526;28;20027;-64
2020/12/09 01:01:06;;;;;;;19.40;14.40;;;;;;;4.38;89.63;97926.16;4995450;28;20039;-64
2020/12/09 01:03:32;;;;;;;19.17;14.03;;;;;;;4.34;89.80;97931.25;4993861;28;20049;-64
2020/12/09 01:05:58;;;;;;;20.93;13.73;;;;;;;4.32;89.67;97928.75;4996556;28;20030;-63
2020/12/09 01:08:24;;;;;;;20.40;14.80;;;;;;;4.34;89.74;97934.63;4996549;28;20026;-63
2020/12/09 01:10:49;;;;;;;19.13;13.73;;;;;;;4.33;89.40;97935.47;4985403;28;20042;-64
2020/12/09 01:13:15;;;;;;;17.70;14.13;;;;;;;4.35;89.69;97931.25;4984673;28;20039;-64
2020/12/09 01:15:41;;;;;;;17.57;13.17;;;;;;;4.37;89.49;97937.13;4977695;28;20035;-64
2020/12/09 01:18:07;;;;;;;24.03;15.80;;;;;;;4.31;89.45;97931.28;4977736;28;20033;-64
2020/12/09 01:20:32;;;;;;;17.23;13.20;;;;;;;4.38;89.15;97928.69;4982041;28;20026;-64
2020/12/09 01:22:58;;;;;;;17.87;13.60;;;;;;;4.38;88.64;97915.16;4988498;28;20058;-64
2020/12/09 01:25:23;;;;;;;20.23;14.93;;;;;;;4.37;88.74;97918.56;4987827;28;20041;-64
2020/12/09 01:27:50;;;;;;;19.03;12.97;;;;;;;4.39;88.42;97914.31;4983568;28;20035;-64
2020/12/09 01:30:15;;;;;;;17.37;13.07;;;;;;;4.35;88.81;97913.50;4988958;28;20057;-64
2020/12/09 01:32:41;;;;;;;19.10;13.43;;;;;;;4.32;88.54;97921.13;4985151;28;20452;-64
2020/12/09 01:35:06;;;;;;;16.47;13.60;;;;;;;4.33;88.45;97920.25;4990577;28;20026;-64
2020/12/09 01:37:32;;;;;;;17.20;12.90;;;;;;;4.33;88.88;97921.97;4991174;28;20521;-64
2020/12/09 01:39:57;;;;;;;18.80;13.37;;;;;;;4.25;89.72;97914.38;4969907;28;20506;-64
2020/12/09 01:42:22;;;;;;;20.67;14.77;;;;;;;4.19;89.59;97916.97;4987794;28;20030;-64
2020/12/09 01:44:48;;;;;;;16.40;13.57;;;;;;;4.16;89.96;97911.06;4992709;28;20022;-64
2020/12/09 01:47:13;;;;;;;17.23;12.63;;;;;;;4.27;88.79;97915.22;4994778;28;20057;-64
2020/12/09 01:49:39;;;;;;;15.90;13.37;;;;;;;4.29;88.97;97916.03;4994234;28;20337;-64
2020/12/09 01:52:05;;;;;;;16.13;12.87;;;;;;;4.34;88.44;97923.63;4973103;28;20084;-64
2020/12/09 01:54:31;;;;;;;18.27;14.27;;;;;;;4.28;88.79;97911.84;4989274;28;20038;-64
2020/12/09 01:57:11;;;;;;;18.30;12.50;;;;;;;4.32;88.81;97913.50;4987681;28;20042;-64
2020/12/09 01:59:38;;;;;;;18.67;13.50;;;;;;;4.25;89.53;97911.84;4987962;28;20027;-64
2020/12/09 02:02:05;;;;;;;15.90;12.50;;;;;;;4.27;88.33;97915.22;4990703;28;20029;-64
2020/12/09 02:04:31;;;;;;;15.40;12.60;;;;;;;4.31;87.99;97914.38;4993360;28;20087;-64
2020/12/09 02:06:57;;;;;;;13.93;11.37;;;;;;;4.33;87.68;97914.38;4991611;28;20101;-64
2020/12/09 02:09:23;;;;;;;15.53;11.47;;;;;;;4.29;86.97;97910.97;4994258;28;20109;-64
2020/12/09 02:11:53;;;;;;;14.43;11.33;;;;;;;4.34;87.14;97911.78;4988017;28;20014;-63
2020/12/09 02:14:19;;;;;;;14.40;10.17;;;;;;;4.33;86.54;97907.56;4985985;28;20019;-64
2020/12/09 02:16:52;;;;;;;13.57;10.63;;;;;;;4.33;86.23;97906.75;4978223;28;20034;-64
2020/12/09 02:19:18;;;;;;;14.13;10.10;;;;;;;4.28;86.79;97916.94;4961480;28;20053;-64
2020/12/09 02:21:44;;;;;;;15.10;11.13;;;;;;;4.22;86.33;97905.94;4979834;28;20062;-64
2020/12/09 02:24:09;;;;;;;14.27;10.77;;;;;;;4.24;86.34;97904.25;4979714;28;20504;-63
2020/12/09 02:26:40;;;;;;;13.73;10.17;;;;;;;4.25;85.98;97908.47;4983768;28;20050;-64
2020/12/09 02:29:06;;;;;;;13.03;10.07;;;;;;;4.17;86.02;97903.44;4981557;28;20359;-64
2020/12/09 02:31:31;;;;;;;14.20;10.27;;;;;;;4.17;85.89;97900.06;4984921;28;20029;-64
2020/12/09 02:33:56;;;;;;;15.23;11.40;;;;;;;4.17;86.29;97897.53;4987818;28;20026;-64
2020/12/09 02:36:22;;;;;;;14.27;10.87;;;;;;;4.10;86.52;97899.25;4989564;28;20344;-64
2020/12/09 02:38:47;;;;;;;13.57;9.53;;;;;;;4.16;86.26;97898.41;4993342;28;20041;-64
2020/12/09 02:41:13;;;;;;;16.37;10.20;;;;;;;4.14;85.74;97890.78;4992318;28;20428;-64
2020/12/09 02:43:38;;;;;;;13.93;9.90;;;;;;;4.03;85.69;97890.00;4994723;28;20453;-64
2020/12/09 02:46:03;;;;;;;12.17;9.57;;;;;;;4.08;85.34;97894.19;4993589;28;20026;-64
2020/12/09 02:48:29;;;;;;;13.00;9.37;;;;;;;4.14;85.24;97904.31;4984239;28;20050;-64
2020/12/09 02:50:56;;;;;;;12.97;9.03;;;;;;;4.18;85.18;97897.53;4988856;28;20100;-64
2020/12/09 02:53:21;;;;;;;12.40;9.20;;;;;;;4.22;84.75;97901.72;4985803;28;20061;-64
2020/12/09 02:55:47;;;;;;;14.20;9.07;;;;;;;4.17;85.03;97887.38;4990983;28;20069;-64
2020/12/09 02:58:12;;;;;;;11.63;8.27;;;;;;;4.16;84.90;97878.09;4989021;28;20023;-63
2020/12/09 03:00:37;;;;;;;13.13;8.70;;;;;;;4.11;85.12;97878.97;4971402;28;20027;-64
2020/12/09 03:03:03;;;;;;;10.10;8.17;;;;;;;4.08;84.80;97876.44;4984291;28;20026;-64
2020/12/09 03:05:28;;;;;;;15.57;9.93;;;;;;;4.07;84.81;97876.47;4977331;28;20022;-63
2020/12/09 03:07:54;;;;;;;12.50;9.70;;;;;;;4.03;85.15;97887.47;4971023;28;20026;-63
2020/12/09 03:10:20;;;;;;;11.50;8.87;;;;;;;4.10;84.89;97889.13;4982888;28;20034;-64
2020/12/09 03:12:46;;;;;;;13.57;8.83;;;;;;;4.05;84.73;97878.16;4966117;28;20034;-64
2020/12/09 03:15:11;;;;;;;12.17;9.03;;;;;;;3.98;85.00;97877.34;4979487;28;20351;-62
2020/12/09 03:17:37;;;;;;;13.10;9.00;;;;;;;4.12;84.30;97883.16;4977877;28;20026;-64
2020/12/09 03:20:02;;;;;;;15.20;9.87;;;;;;;4.03;85.12;97882.41;4961553;28;20061;-61
2020/12/09 03:22:28;;;;;;;12.60;9.47;;;;;;;3.95;85.07;97882.41;4979871;28;20023;-62
2020/12/09 03:24:53;;;;;;;13.70;9.40;;;;;;;3.93;84.86;97874.00;4984380;28;20495;-62
2020/12/09 03:27:19;;;;;;;12.67;9.17;;;;;;;4.01;84.64;97877.31;4982096;28;20035;-64
2020/12/09 03:29:44;;;;;;;15.63;10.40;;;;;;;3.96;84.77;97876.50;4985190;28;20038;-62
2020/12/09 03:32:09;;;;;;;12.40;9.27;;;;;;;3.92;85.00;97868.91;4984808;28;20088;-62
2020/12/09 03:34:35;;;;;;;14.17;10.33;;;;;;;3.92;85.15;97876.53;4989327;28;20030;-62
2020/12/09 03:37:00;;;;;;;13.33;9.87;;;;;;;3.97;84.82;97878.19;4975949;28;20037;-64
2020/12/09 03:39:26;;;;;;;13.73;9.90;;;;;;;3.96;84.51;97885.78;4992938;28;20957;-63
2020/12/09 03:41:51;;;;;;;13.67;10.60;;;;;;;4.04;84.32;97895.06;4987959;28;20023;-63
2020/12/09 03:44:16;;;;;;;12.70;9.33;;;;;;;3.96;84.42;97891.72;4987388;28;20026;-63
2020/12/09 03:46:42;;;;;;;14.93;10.03;;;;;;;4.00;84.51;97893.38;4984219;28;20051;-64
2020/12/09 03:49:07;;;;;;;14.00;11.00;;;;;;;3.92;84.37;97894.28;4989488;28;20404;-64
2020/12/09 03:51:33;;;;;;;13.97;10.20;;;;;;;3.95;83.78;97899.31;4985719;28;20023;-63
2020/12/09 03:53:58;;;;;;;13.87;9.73;;;;;;;3.85;84.20;97901.06;4991449;28;20030;-63
2020/12/09 03:56:24;;;;;;;14.23;11.03;;;;;;;3.82;84.05;97898.53;4989635;28;20416;-63
2020/12/09 03:58:49;;;;;;;11.73;9.80;;;;;;;3.88;84.29;97893.44;4992895;28;20041;-63
2020/12/09 04:01:15;;;;;;;15.67;11.50;;;;;;;3.82;84.56;97902.78;4992582;28;20053;-63
2020/12/09 04:03:40;;;;;;;11.93;9.60;;;;;;;3.84;83.92;97909.53;4987277;28;20094;-61
2020/12/09 04:06:06;;;;;;;14.23;10.07;;;;;;;3.87;83.82;97921.31;4981688;28;20332;-62
2020/12/09 04:08:31;;;;;;;13.33;9.10;;;;;;;3.88;83.79;97918.81;4984218;28;20440;-63
2020/12/09 04:10:57;;;;;;;13.73;10.27;;;;;;;3.85;83.81;97912.91;4988754;28;20026;-63
2020/12/09 04:13:22;;;;;;;13.47;9.47;;;;;;;3.83;84.02;97902.75;4987442;28;20030;-63
2020/12/09 04:15:48;;;;;;;13.10;9.80;;;;;;;3.85;83.81;97910.38;4989911;28;20048;-63
2020/12/09 04:18:13;;;;;;;12.70;9.67;;;;;;;3.89;83.44;97905.28;4990712;28;20517;-62
2020/12/09 04:20:39;;;;;;;13.97;10.57;;;;;;;3.79;84.00;97905.31;4984547;28;20073;-61
2020/12/09 04:23:04;;;;;;;13.67;9.67;;;;;;;3.79;83.46;97900.25;4992871;28;20077;-61
2020/12/09 04:25:30;;;;;;;12.80;9.23;;;;;;;3.79;83.50;97905.31;4989607;28;20034;-62
2020/12/09 04:27:55;;;;;;;11.80;9.60;;;;;;;3.81;83.38;97907.00;4974692;28;20038;-62
2020/12/09 04:30:20;;;;;;;12.97;10.03;;;;;;;3.75;83.42;97904.47;4975102;28;20144;-62
2020/12/09 04:32:46;;;;;;;14.33;10.60;;;;;;;3.77;83.40;97902.81;4987157;28;20359;-63
2020/12/09 04:35:12;;;;;;;16.33;11.87;;;;;;;3.72;83.52;97893.53;4977574;28;20066;-62
2020/12/09 04:37:38;;;;;;;13.23;10.33;;;;;;;3.69;83.95;97896.91;4976833;28;20062;-62
2020/12/09 04:40:05;;;;;;;12.27;9.70;;;;;;;3.70;83.85;97890.97;4977791;28;20050;-62
2020/12/09 04:42:31;;;;;;;13.67;10.37;;;;;;;3.74;83.41;97886.72;4978747;28;20031;-62
2020/12/09 04:44:57;;;;;;;13.53;10.67;;;;;;;3.72;83.73;97893.53;4977771;28;20471;-62
2020/12/09 04:47:28;;;;;;;13.77;11.30;;;;;;;3.77;83.47;97890.13;4978573;28;20046;-62
2020/12/09 04:50:26;;;;;;;13.43;10.80;;;;;;;3.79;83.06;97880.81;4977129;28;20467;-62
2020/12/09 04:53:25;;;;;;;13.87;10.77;;;;;;;3.77;83.39;97889.28;4967955;28;20039;-63
2020/12/09 04:55:53;;;;;;;14.77;10.90;;;;;;;3.71;83.48;97885.06;4967217;28;20385;-62
2020/12/09 04:58:29;;;;;;;14.30;11.07;;;;;;;3.71;83.41;97889.28;4979263;28;20393;-63
2020/12/09 05:01:08;;;;;;;13.37;9.67;;;;;;;3.74;83.66;97894.34;4979168;28;20027;-63
2020/12/09 05:04:07;;;;;;;16.27;11.20;;;;;;;3.72;83.84;97904.50;4977887;28;20034;-62
2020/12/09 05:06:33;;;;;;;12.67;10.23;;;;;;;3.70;83.16;97906.19;4968134;28;20117;-63
2020/12/09 05:09:02;;;;;;;15.20;10.93;;;;;;;3.77;82.73;97900.28;4978498;28;20035;-62
2020/12/09 05:11:27;;;;;;;13.17;10.07;;;;;;;3.73;83.07;97893.53;4977653;28;20478;-63
2020/12/09 05:13:55;;;;;;;14.30;9.73;;;;;;;3.71;82.94;97894.38;4961465;28;20125;-62
2020/12/09 05:16:22;;;;;;;15.40;10.87;;;;;;;3.68;83.36;97893.53;4976878;28;20027;-62
2020/12/09 05:18:54;;;;;;;12.67;10.80;;;;;;;3.67;83.06;97898.59;4978210;28;20030;-62
2020/12/09 05:21:21;;;;;;;14.77;10.57;;;;;;;3.65;83.49;97895.22;4977387;28;20038;-63
2020/12/09 05:23:51;;;;;;;14.60;9.33;;;;;;;3.69;83.46;97900.28;4978442;28;20042;-63
2020/12/09 05:26:36;;;;;;;13.53;9.93;;;;;;;3.72;83.09;97901.13;4978614;28;20042;-63
2020/12/09 05:29:06;;;;;;;12.15;9.25;;;;;;;3.71;83.47;97896.91;4977673;28;20372;-63
2020/12/09 05:31:31;;;;;;;13.87;10.60;;;;;;;3.60;83.38;97892.72;4978109;28;20356;-63
2020/12/09 05:33:57;;;;;;;15.63;10.70;;;;;;;3.72;82.43;97896.06;4976580;28;20042;-63
2020/12/09 05:36:26;;;;;;;14.50;10.37;;;;;;;3.62;82.74;97900.31;4978350;28;20126;-62
2020/12/09 05:39:04;;;;;;;13.97;10.83;;;;;;;3.66;82.54;97896.91;4960129;28;20034;-62
2020/12/09 05:41:31;;;;;;;12.97;9.93;;;;;;;3.54;83.07;97890.19;4977096;28;20045;-62
2020/12/09 05:44:03;;;;;;;14.60;10.13;;;;;;;3.60;83.19;97886.81;4977297;28;20027;-63
2020/12/09 05:46:29;;;;;;;12.83;10.40;;;;;;;3.59;82.69;97897.78;4977432;28;20070;-63
2020/12/09 05:48:55;;;;;;;12.57;9.03;;;;;;;3.64;82.89;97902.00;4977980;28;20030;-63
2020/12/09 05:51:21;;;;;;;14.03;10.33;;;;;;;3.54;82.50;97900.34;4977024;28;20046;-63
2020/12/09 05:53:47;;;;;;;14.63;10.83;;;;;;;3.60;82.35;97900.31;4977854;28;20035;-61
2020/12/09 05:56:12;;;;;;;13.90;11.00;;;;;;;3.60;82.23;97913.00;4976769;28;20041;-62
2020/12/09 05:58:43;;;;;;;17.20;11.10;;;;;;;3.51;82.90;97907.97;4978002;28;20407;-63
2020/12/09 06:01:10;;;;;;;14.50;11.27;;;;;;;3.44;82.88;97908.81;4977412;28;20403;-63
2020/12/09 06:03:37;;;;;;;12.47;10.07;;;;;;;3.43;83.10;97909.66;4977491;28;20052;-62
2020/12/09 06:06:12;;;;;;;14.90;10.93;;;;;;;3.42;82.93;97907.97;4976583;28;20508;-62
2020/12/09 06:08:45;;;;;;;14.32;10.35;;;;;;;3.44;83.27;97916.41;4977550;28;20411;-62
2020/12/09 06:11:13;;;;;;;16.73;11.40;;;;;;;3.49;83.19;97911.31;4985831;28;20053;-62
2020/12/09 06:13:38;;;;;;;13.10;9.50;;;;;;;3.45;83.10;97913.03;4996866;28;20022;-62
2020/12/09 06:16:05;;;;;;;13.37;10.40;;;;;;;3.48;83.15;97902.06;4987158;28;20034;-63
2020/12/09 06:18:32;;;;;;;13.20;9.80;;;;;;;3.57;82.64;97907.91;4977210;28;20035;-62
2020/12/09 06:20:58;;;;;;;13.53;10.63;;;;;;;3.56;82.69;97915.53;4974454;28;20034;-62
2020/12/09 06:23:27;;;;;;;14.50;11.07;;;;;;;3.50;82.97;97901.19;4976924;28;20031;-62
2020/12/09 06:25:56;;;;;;;10.97;9.20;;;;;;;3.52;82.21;97912.16;4976158;28;20035;-62
2020/12/09 06:28:25;;;;;;;12.37;10.00;;;;;;;3.50;82.77;97920.63;4976342;28;20034;-62
2020/12/09 06:30:52;;;;;;;15.23;10.60;;;;;;;3.55;82.76;97929.06;4977183;28;20023;-62
2020/12/09 06:33:33;;;;;;;15.90;9.90;;;;;;;3.53;83.25;97923.97;4958202;28;20460;-63
2020/12/09 06:36:20;;;;;;;12.10;9.47;;;;;;;3.50;83.51;97923.16;4976018;28;20057;-63
2020/12/09 06:39:18;;;;;;;13.10;9.60;;;;;;;3.54;82.60;97922.28;4978002;28;20054;-63
2020/12/09 06:41:46;;;;;;;13.70;10.17;;;;;;;3.49;82.34;97924.84;4949655;28;20049;-63
2020/12/09 06:44:16;;;;;;;13.13;10.00;;;;;;;3.41;83.08;97931.63;4984330;28;20026;-63
2020/12/09 06:46:46;;;;;;;11.83;9.30;;;;;;;3.41;83.28;97921.47;4975641;28;20050;-63
2020/12/09 06:49:34;;;;;;;14.67;10.33;;;;;;;3.43;83.90;97924.03;4976434;28;20054;-63
2020/12/09 06:52:06;;;;;;;13.40;9.77;;;;;;;3.35;84.21;97928.25;4976506;28;20018;-62
2020/12/09 06:54:49;;;;;;;15.10;10.90;;;;;;;3.36;84.05;97940.91;4977793;28;20093;-62
2020/12/09 06:57:19;;;;;;;14.00;10.33;;;;;;;3.29;84.15;97939.25;4995568;28;20026;-61
2020/12/09 06:59:46;;;;;;;14.20;10.23;;;;;;;3.19;84.58;97940.94;4989770;28;20061;-62
2020/12/09 07:02:29;;;;;;;13.60;10.40;;;;;;;3.31;84.33;97944.31;4975683;28;20094;-61
2020/12/09 07:04:55;;;;;;;15.40;10.00;;;;;;;3.21;85.04;97944.31;4976273;28;20118;-62
2020/12/09 07:07:27;;;;;;;14.50;11.40;;;;;;;3.18;85.38;97944.31;4975304;28;20414;-62
2020/12/09 07:09:53;;;;;;;12.63;9.53;;;;;;;3.15;85.07;97949.38;4987050;28;20026;-62
2020/12/09 07:12:23;;;;;;;15.77;10.43;;;;;;;3.18;85.13;97940.97;4975068;28;20352;-63
2020/12/09 07:14:49;;;;;;;16.03;11.80;;;;;;;3.11;85.15;97946.84;4974038;28;20408;-62
2020/12/09 07:17:21;;;;;;;16.50;12.10;;;;;;;3.06;85.44;97946.84;4958259;28;20039;-63
2020/12/09 07:19:46;;;;;;;16.30;11.93;;;;;;;3.01;85.56;97952.78;4974020;28;20040;-62
2020/12/09 07:22:12;;;;;;;16.20;12.53;;;;;;;3.03;85.54;97958.66;4976193;28;20023;-62
2020/12/09 07:24:37;;;;;;;16.53;11.77;;;;;;;3.12;85.35;97953.59;4975270;28;20030;-62
2020/12/09 07:27:03;;;;;;;14.40;11.17;;;;;;;3.18;85.54;97958.69;4976077;28;20031;-62
2020/12/09 07:29:29;;;;;;;14.17;11.00;;;;;;;3.19;85.00;97961.19;4975958;28;20057;-61
2020/12/09 07:31:59;;;;;;;12.03;9.50;;;;;;;3.25;85.35;97955.28;4975700;28;20037;-62
2020/12/09 07:34:25;;;;;;;17.13;11.50;;;;;;;3.30;85.10;97961.19;4975739;28;20031;-62
2020/12/09 07:36:52;;;;;;;16.00;10.53;;;;;;;3.23;84.74;97956.97;4957944;28;20106;-63
2020/12/09 07:39:33;;;;;;;20.20;13.00;;;;;;;3.32;85.38;97951.91;4975618;28;20023;-63
2020/12/09 07:42:00;;;;;;;19.60;12.43;;;;;;;3.35;85.37;97956.13;4972985;28;20396;-63
2020/12/09 07:44:26;;;;;;;18.77;12.83;;;;;;;3.37;85.15;97951.88;4987641;28;20034;-63
2020/12/09 07:46:59;;;;;;;16.23;10.83;;;;;;;3.39;84.16;97955.28;4988157;28;20043;-63
2020/12/09 07:49:25;;;;;;;15.27;11.37;;;;;;;3.39;83.93;97951.06;4957052;28;20456;-63
2020/12/09 07:51:53;;;;;;;22.13;15.27;;;;;;;3.38;84.58;97954.44;4974189;28;20448;-63
2020/12/09 07:54:22;;;;;;;25.73;18.53;;;;;;;3.40;84.58;97955.25;4974043;28;20367;-63
2020/12/09 07:56:47;;;;;;;29.13;17.70;;;;;;;3.38;84.63;97953.59;4974120;28;20102;-63
2020/12/09 07:59:14;;;;;;;25.20;15.70;;;;;;;3.41;84.79;97959.47;4974387;28;20027;-63
2020/12/09 08:01:40;;;;;;;26.77;16.20;;;;;;;3.44;84.59;97962.00;4973585;28;20034;-63
2020/12/09 08:04:06;;;;;;;17.27;11.43;;;;;;;3.44;84.25;97956.94;4975366;28;20341;-63
2020/12/09 08:06:34;;;;;;;12.17;10.23;;;;;;;3.46;84.01;97955.25;4973729;28;20347;-62
2020/12/09 08:09:31;;;;;;;15.67;10.80;;;;;;;3.48;83.46;97948.47;4955323;29;20027;-63
2020/12/09 08:11:57;;;;;;;15.63;10.93;;;;;;;3.49;83.85;97944.25;4924529;28;20042;-63
2020/12/09 08:14:31;;;;;;;16.17;10.83;;;;;;;3.53;83.04;97954.38;4971163;28;20027;-62
2020/12/09 08:16:57;;;;;;;13.70;10.63;;;;;;;3.52;82.90;97952.69;4971530;28;20034;-62
2020/12/09 08:19:22;;;;;;;12.27;9.50;;;;;;;3.49;82.78;97954.41;4952803;28;20019;-62
2020/12/09 08:21:48;;;;;;;16.80;10.20;;;;;;;3.60;82.29;97953.56;4970967;28;20432;-63
2020/12/09 08:24:13;;;;;;;13.70;9.57;;;;;;;3.63;82.28;97958.59;4970053;28;20212;-63
2020/12/09 08:26:42;;;;;;;13.50;9.23;;;;;;;3.63;82.84;97961.13;4971391;28;20042;-63
2020/12/09 08:29:15;;;;;;;16.03;11.10;;;;;;;3.67;82.41;97956.91;4974288;28;20022;-62
2020/12/09 08:31:41;;;;;;;15.77;11.60;;;;;;;3.68;82.57;97966.19;4975800;28;20023;-63
2020/12/09 08:34:14;;;;;;;15.70;11.50;;;;;;;3.69;82.35;97972.97;4972724;28;20019;-63
2020/12/09 08:36:40;;;;;;;11.30;8.83;;;;;;;3.69;82.10;97958.56;4976104;28;20101;-63
2020/12/09 08:39:06;;;;;;;12.77;10.30;;;;;;;3.63;81.55;97970.44;4970917;28;20441;-63
2020/12/09 08:41:35;;;;;;;13.33;10.10;;;;;;;3.65;81.90;97966.19;4970139;28;20344;-64
2020/12/09 08:44:06;;;;;;;17.20;12.80;;;;;;;3.71;82.00;97960.25;4972877;28;20030;-63
2020/12/09 08:46:32;;;;;;;15.97;10.23;;;;;;;3.67;82.05;97952.69;4952866;28;20514;-63
2020/12/09 08:48:58;;;;;;;18.87;10.83;;;;;;;3.76;82.20;97966.16;4970761;28;20113;-63
2020/12/09 08:51:26;;;;;;;16.77;12.73;;;;;;;3.79;82.02;97966.16;4970072;28;20455;-63
2020/12/09 08:53:52;;;;;;;19.40;13.33;;;;;;;3.80;82.08;97970.38;4971091;28;20038;-63
2020/12/09 08:56:24;;;;;;;23.07;15.63;;;;;;;3.84;82.30;97969.53;4973570;28;20034;-63
2020/12/09 08:58:49;;;;;;;18.13;12.50;;;;;;;3.83;82.30;97960.22;4971657;28;20236;-64
2020/12/09 09:01:15;;;;;;;13.37;10.07;;;;;;;3.90;82.09;97975.44;4957717;28;20415;-63
2020/12/09 09:03:41;;;;;;;23.40;14.30;;;;;;;3.86;81.62;97971.19;4974484;28;20081;-63
2020/12/09 09:06:06;;;;;;;15.57;11.60;;;;;;;3.87;80.92;97974.56;4973943;28;20355;-63
2020/12/09 09:08:32;;;;;;;17.73;10.47;;;;;;;3.90;80.59;97972.91;4974907;28;20023;-63
2020/12/09 09:10:57;;;;;;;13.70;10.30;;;;;;;3.93;80.43;97979.63;4975046;28;20022;-63
2020/12/09 09:13:23;;;;;;;15.17;9.77;;;;;;;3.74;79.75;97976.31;4982595;28;20029;-63
2020/12/09 09:15:48;;;;;;;11.20;9.07;;;;;;;3.79;80.49;97973.75;4977205;28;20042;-63
2020/12/09 09:18:14;;;;;;;9.83;7.80;;;;;;;3.82;80.10;97972.03;4977666;28;20129;-63
2020/12/09 09:20:40;;;;;;;11.77;8.47;;;;;;;3.80;80.23;97970.38;4978609;28;20023;-63
2020/12/09 09:23:06;;;;;;;9.83;7.87;;;;;;;3.87;79.56;97979.66;4990340;28;20019;-63
2020/12/09 09:25:35;;;;;;;11.53;8.13;;;;;;;3.87;80.44;97982.19;4968197;28;20089;-63
2020/12/09 09:28:01;;;;;;;10.93;7.93;;;;;;;3.82;80.32;97983.91;4986199;28;20039;-63
2020/12/09 09:30:27;;;;;;;12.30;8.70;;;;;;;3.79;80.04;97973.75;4975037;28;20050;-63
2020/12/09 09:32:52;;;;;;;13.97;8.50;;;;;;;3.89;79.55;97977.97;4972801;28;20093;-62
2020/12/09 09:35:19;;;;;;;11.77;8.83;;;;;;;3.89;79.47;97976.28;4971560;28;20023;-63
2020/12/09 09:37:44;;;;;;;10.93;7.33;;;;;;;3.88;79.72;97973.72;4982101;28;20459;-63
2020/12/09 09:40:11;;;;;;;10.77;7.97;;;;;;;3.97;79.36;97979.63;4977731;28;20038;-62
2020/12/09 09:42:37;;;;;;;7.87;6.90;;;;;;;4.02;79.24;97977.91;4977793;28;20551;-62
2020/12/09 09:45:05;;;;;;;11.60;8.40;;;;;;;4.00;80.05;97974.53;4984092;28;20033;-63
2020/12/09 09:47:30;;;;;;;11.17;8.60;;;;;;;3.93;79.87;97965.28;4977680;28;20054;-63
2020/12/09 09:49:56;;;;;;;10.73;7.87;;;;;;;4.04;79.74;97973.66;4977357;28;20333;-63
2020/12/09 09:52:21;;;;;;;11.00;8.53;;;;;;;4.17;79.34;97969.38;4979771;28;20157;-62
2020/12/09 09:54:47;;;;;;;16.70;12.27;;;;;;;4.33;79.02;97968.47;4977569;28;20031;-63
2020/12/09 09:57:12;;;;;;;16.70;11.87;;;;;;;4.49;78.77;97966.72;4962575;28;20116;-63
2020/12/09 09:59:38;;;;;;;15.03;11.37;;;;;;;4.67;78.29;97971.66;4960012;28;20031;-63
2020/12/09 10:02:04;;;;;;;11.43;8.43;;;;;;;4.69;77.80;97971.66;4992855;28;20223;-62
2020/12/09 10:04:29;;;;;;;11.57;8.77;;;;;;;4.81;76.92;97971.56;4985579;28;20035;-62
2020/12/09 10:06:54;;;;;;;11.57;8.73;;;;;;;4.73;76.62;97961.47;4976765;28;20063;-62
2020/12/09 10:09:20;;;;;;;13.87;9.00;;;;;;;4.86;76.63;97959.69;4977721;28;20046;-62
2020/12/09 10:11:46;;;;;;;29.33;18.20;;;;;;;4.78;76.12;97953.81;4977266;28;20061;-62
2020/12/09 10:14:12;;;;;;;12.93;9.07;;;;;;;4.75;76.22;97946.25;4976098;28;20026;-62
2020/12/09 10:16:41;;;;;;;12.33;8.57;;;;;;;4.67;76.26;97948.81;4993181;28;20389;-62
2020/12/09 10:19:07;;;;;;;12.87;7.47;;;;;;;4.68;76.51;97944.56;4978326;28;20050;-62
2020/12/09 10:21:34;;;;;;;12.47;8.97;;;;;;;4.83;77.58;97947.03;4985185;28;20026;-61
2020/12/09 10:24:01;;;;;;;15.10;9.60;;;;;;;4.85;76.62;97930.91;4982165;28;20034;-62
2020/12/09 10:26:34;;;;;;;13.77;9.67;;;;;;;5.00;76.23;97932.50;4987393;28;20027;-62
2020/12/09 10:29:01;;;;;;;13.80;9.87;;;;;;;5.02;75.72;97935.84;4983369;28;20026;-62
2020/12/09 10:31:41;;;;;;;13.80;9.10;;;;;;;5.08;76.01;97930.72;4970126;28;20015;-61
2020/12/09 10:34:08;;;;;;;10.73;8.30;;;;;;;5.22;75.19;97925.53;4988735;28;20057;-63
2020/12/09 10:36:35;;;;;;;10.17;8.13;;;;;;;5.25;74.85;97933.97;4990345;28;20038;-63
2020/12/09 10:39:01;;;;;;;9.57;7.57;;;;;;;5.26;74.46;97929.72;4992579;28;20053;-63
2020/12/09 10:41:26;;;;;;;10.90;8.27;;;;;;;5.25;75.29;97921.25;4987661;28;20066;-61
2020/12/09 10:43:53;;;;;;;9.63;8.10;;;;;;;5.29;74.81;97919.53;4982476;28;20069;-63
2020/12/09 10:46:20;;;;;;;11.87;7.70;;;;;;;5.12;75.08;97916.28;4992528;28;20026;-62
2020/12/09 10:48:46;;;;;;;10.37;7.17;;;;;;;4.88;75.52;97925.78;4988600;28;20105;-62
2020/12/09 10:51:12;;;;;;;8.93;6.90;;;;;;;4.89;74.93;97919.88;4980610;28;20023;-62
2020/12/09 10:53:37;;;;;;;10.43;7.47;;;;;;;4.80;74.48;97914.00;4987407;28;20032;-62
2020/12/09 10:56:02;;;;;;;11.90;7.80;;;;;;;4.91;74.97;97913.09;4990544;28;20050;-63
2020/12/09 10:58:28;;;;;;;9.43;7.37;;;;;;;4.94;74.78;97914.75;4988238;28;20362;-61
2020/12/09 11:00:54;;;;;;;10.37;7.53;;;;;;;4.93;75.42;97908.81;4991818;28;20041;-62
2020/12/09 11:03:20;;;;;;;11.57;8.77;;;;;;;4.94;75.63;97902.91;4990247;28;20073;-61
2020/12/09 11:05:46;;;;;;;9.67;7.33;;;;;;;4.90;76.21;97902.94;4993494;28;20026;-61
2020/12/09 11:08:12;;;;;;;12.57;8.17;;;;;;;4.91;75.61;97905.47;4983668;28;20031;-62
2020/12/09 11:10:38;;;;;;;10.40;7.83;;;;;;;4.92;76.01;97901.25;4977309;28;20077;-62
2020/12/09 11:13:03;;;;;;;9.00;7.20;;;;;;;4.89;74.91;97893.63;4983473;28;20068;-62
2020/12/09 11:15:28;;;;;;;11.27;8.07;;;;;;;4.77;75.25;97896.28;4991226;28;20072;-62
2020/12/09 11:17:54;;;;;;;11.10;7.70;;;;;;;4.74;75.23;97894.63;4993909;28;20034;-63
2020/12/09 11:20:19;;;;;;;10.90;7.37;;;;;;;4.86;74.69;97883.50;4984759;28;20023;-64
2020/12/09 11:22:44;;;;;;;10.87;7.57;;;;;;;4.87;74.96;97888.59;4982347;28;20026;-61
2020/12/09 11:25:10;;;;;;;10.13;7.30;;;;;;;4.86;74.09;97894.50;4989207;28;20030;-62
2020/12/09 11:27:35;;;;;;;10.37;7.70;;;;;;;4.88;74.97;97891.97;4985741;28;20412;-62
2020/12/09 11:30:02;;;;;;;9.83;7.50;;;;;;;4.90;75.04;97886.00;4990201;28;20332;-62
2020/12/09 11:32:34;;;;;;;12.00;8.17;;;;;;;4.97;74.91;97881.69;4988575;28;20023;-63